sensor_id;sensor_type;location;lat;lon;timestamp;pressure;altitude;pressure_sealevel;temperature;humidity
84878;BME280;75140;47.754;8.840;2024-02-21T00:01:17;97794.59;;;2.49;90.85
84878;BME280;75140;47.754;8.840;2024-02-21T00:03:42;97802.16;;;2.54;91.43
84878;BME280;75140;47.754;8.840;2024-02-21T00:06:08;97801.50;;;2.63;90.84
84878;BME280;75140;47.754;8.840;2024-02-21T00:08:33;97791.25;;;2.60;90.72
84878;BME280;75140;47.754;8.840;2024-02-21T00:10:59;97793.56;;;2.52;91.53
84878;BME280;75140;47.754;8.840;2024-02-21T00:13:24;97788.44;;;2.50;91.33
84878;BME280;75140;47.754;8.840;2024-02-21T00:15:50;97795.03;;;2.43;92.26
84878;BME280;75140;47.754;8.840;2024-02-21T00:18:15;97799.88;;;2.36;92.12
84878;BME280;75140;47.754;8.840;2024-02-21T00:20:41;97794.31;;;2.28;92.51
84878;BME280;75140;47.754;8.840;2024-02-21T00:23:06;97790.53;;;2.32;92.18
84878;BME280;75140;47.754;8.840;2024-02-21T00:25:31;97788.63;;;2.47;91.55
84878;BME280;75140;47.754;8.840;2024-02-21T00:27:57;97782.25;;;2.51;90.50
84878;BME280;75140;47.754;8.840;2024-02-21T00:30:22;97772.72;;;2.50;91.14
84878;BME280;75140;47.754;8.840;2024-02-21T00:32:47;97764.00;;;2.50;91.87
84878;BME280;75140;47.754;8.840;2024-02-21T00:35:14;97758.78;;;2.50;90.78
84878;BME280;75140;47.754;8.840;2024-02-21T00:37:39;97759.72;;;2.49;91.77
84878;BME280;75140;47.754;8.840;2024-02-21T00:40:05;97751.88;;;2.49;91.39
84878;BME280;75140;47.754;8.840;2024-02-21T00:42:31;97752.16;;;2.57;91.22
84878;BME280;75140;47.754;8.840;2024-02-21T00:44:56;97757.31;;;2.45;91.74
84878;BME280;75140;47.754;8.840;2024-02-21T00:47:21;97762.25;;;2.37;91.93
84878;BME280;75140;47.754;8.840;2024-02-21T00:49:47;97761.09;;;2.41;92.08
84878;BME280;75140;47.754;8.840;2024-02-21T00:52:12;97756.56;;;2.43;91.32
84878;BME280;75140;47.754;8.840;2024-02-21T00:54:37;97750.72;;;2.40;91.88
84878;BME280;75140;47.754;8.840;2024-02-21T00:57:03;97749.16;;;2.37;91.52
84878;BME280;75140;47.754;8.840;2024-02-21T00:59:28;97751.44;;;2.42;92.10
84878;BME280;75140;47.754;8.840;2024-02-21T01:01:54;97744.75;;;2.38;91.43
84878;BME280;75140;47.754;8.840;2024-02-21T01:04:19;97747.91;;;2.30;91.83
84878;BME280;75140;47.754;8.840;2024-02-21T01:06:44;97741.94;;;2.28;92.02
84878;BME280;75140;47.754;8.840;2024-02-21T01:09:11;97741.81;;;2.30;91.96
84878;BME280;75140;47.754;8.840;2024-02-21T01:11:36;97748.41;;;2.35;92.44
84878;BME280;75140;47.754;8.840;2024-02-21T01:14:02;97749.38;;;2.34;91.19
84878;BME280;75140;47.754;8.840;2024-02-21T01:16:27;97745.91;;;2.34;92.15
84878;BME280;75140;47.754;8.840;2024-02-21T01:18:53;97749.56;;;2.44;91.76
84878;BME280;75140;47.754;8.840;2024-02-21T01:21:18;97745.13;;;2.57;91.59
84878;BME280;75140;47.754;8.840;2024-02-21T01:23:43;97747.19;;;2.65;90.69
84878;BME280;75140;47.754;8.840;2024-02-21T01:26:09;97744.06;;;2.60;91.23
84878;BME280;75140;47.754;8.840;2024-02-21T01:28:38;97738.59;;;2.63;91.60
84878;BME280;75140;47.754;8.840;2024-02-21T01:31:03;97729.59;;;2.54;91.57
84878;BME280;75140;47.754;8.840;2024-02-21T01:33:28;97737.16;;;2.59;91.49
84878;BME280;75140;47.754;8.840;2024-02-21T01:35:59;97735.06;;;2.64;91.32
84878;BME280;75140;47.754;8.840;2024-02-21T01:38:24;97728.78;;;2.54;91.38
84878;BME280;75140;47.754;8.840;2024-02-21T01:40:50;97720.75;;;2.68;91.24
84878;BME280;75140;47.754;8.840;2024-02-21T01:43:17;97719.84;;;2.69;91.11
84878;BME280;75140;47.754;8.840;2024-02-21T01:45:45;97708.13;;;2.62;90.80
84878;BME280;75140;47.754;8.840;2024-02-21T01:48:12;97717.13;;;2.58;91.64
84878;BME280;75140;47.754;8.840;2024-02-21T01:50:38;97713.13;;;2.65;90.71
84878;BME280;75140;47.754;8.840;2024-02-21T01:53:04;97706.72;;;2.69;90.60
84878;BME280;75140;47.754;8.840;2024-02-21T01:55:29;97705.09;;;2.55;91.18
84878;BME280;75140;47.754;8.840;2024-02-21T01:57:55;97703.28;;;2.56;91.01
84878;BME280;75140;47.754;8.840;2024-02-21T02:00:20;97692.53;;;2.71;91.21
84878;BME280;75140;47.754;8.840;2024-02-21T02:02:47;97687.03;;;2.87;90.67
84878;BME280;75140;47.754;8.840;2024-02-21T02:05:12;97688.91;;;2.85;90.61
84878;BME280;75140;47.754;8.840;2024-02-21T02:07:37;97679.50;;;2.82;90.21
84878;BME280;75140;47.754;8.840;2024-02-21T02:10:03;97672.69;;;2.80;90.35
84878;BME280;75140;47.754;8.840;2024-02-21T02:12:29;97674.16;;;2.84;91.44
84878;BME280;75140;47.754;8.840;2024-02-21T02:15:01;97674.19;;;2.71;91.56
84878;BME280;75140;47.754;8.840;2024-02-21T02:17:30;97674.31;;;2.70;91.16
84878;BME280;75140;47.754;8.840;2024-02-21T02:19:55;97673.41;;;2.82;90.98
84878;BME280;75140;47.754;8.840;2024-02-21T02:22:31;97674.41;;;2.92;90.32
84878;BME280;75140;47.754;8.840;2024-02-21T02:24:57;97667.84;;;2.86;90.32
84878;BME280;75140;47.754;8.840;2024-02-21T02:27:23;97663.19;;;2.90;90.40
84878;BME280;75140;47.754;8.840;2024-02-21T02:29:49;97654.84;;;2.85;90.34
84878;BME280;75140;47.754;8.840;2024-02-21T02:32:15;97646.72;;;2.77;91.56
84878;BME280;75140;47.754;8.840;2024-02-21T02:34:40;97647.69;;;2.87;91.64
84878;BME280;75140;47.754;8.840;2024-02-21T02:37:05;97637.22;;;2.87;91.05
84878;BME280;75140;47.754;8.840;2024-02-21T02:39:31;97643.38;;;2.75;91.22
84878;BME280;75140;47.754;8.840;2024-02-21T02:41:56;97642.09;;;2.80;91.32
84878;BME280;75140;47.754;8.840;2024-02-21T02:44:21;97648.72;;;2.73;92.06
84878;BME280;75140;47.754;8.840;2024-02-21T02:46:47;97637.88;;;2.78;91.23
84878;BME280;75140;47.754;8.840;2024-02-21T02:49:12;97637.44;;;2.84;91.20
84878;BME280;75140;47.754;8.840;2024-02-21T02:51:41;97640.41;;;2.79;91.17
84878;BME280;75140;47.754;8.840;2024-02-21T02:54:07;97633.53;;;2.89;90.99
84878;BME280;75140;47.754;8.840;2024-02-21T02:56:32;97630.94;;;2.89;91.29
84878;BME280;75140;47.754;8.840;2024-02-21T02:58:58;97636.47;;;2.74;91.25
84878;BME280;75140;47.754;8.840;2024-02-21T03:01:23;97627.19;;;2.81;90.93
84878;BME280;75140;47.754;8.840;2024-02-21T03:03:48;97617.66;;;2.80;91.29
84878;BME280;75140;47.754;8.840;2024-02-21T03:06:14;97610.88;;;2.88;90.16
84878;BME280;75140;47.754;8.840;2024-02-21T03:08:40;97608.81;;;3.04;90.63
84878;BME280;75140;47.754;8.840;2024-02-21T03:11:05;97597.47;;;3.04;89.83
84878;BME280;75140;47.754;8.840;2024-02-21T03:13:30;97589.78;;;2.90;90.69
84878;BME280;75140;47.754;8.840;2024-02-21T03:15:56;97585.03;;;2.95;90.29
84878;BME280;75140;47.754;8.840;2024-02-21T03:18:21;97603.03;;;2.88;91.38
84878;BME280;75140;47.754;8.840;2024-02-21T03:20:46;97592.81;;;3.07;91.05
84878;BME280;75140;47.754;8.840;2024-02-21T03:23:12;97590.31;;;3.06;91.46
84878;BME280;75140;47.754;8.840;2024-02-21T03:25:37;97585.53;;;3.00;90.79
84878;BME280;75140;47.754;8.840;2024-02-21T03:28:02;97587.34;;;2.99;90.70
84878;BME280;75140;47.754;8.840;2024-02-21T03:30:28;97580.06;;;3.03;90.29
84878;BME280;75140;47.754;8.840;2024-02-21T03:32:54;97573.88;;;3.04;90.64
84878;BME280;75140;47.754;8.840;2024-02-21T03:35:19;97560.50;;;3.07;91.01
84878;BME280;75140;47.754;8.840;2024-02-21T03:37:45;97554.22;;;3.20;90.36
84878;BME280;75140;47.754;8.840;2024-02-21T03:40:11;97554.34;;;3.19;90.45
84878;BME280;75140;47.754;8.840;2024-02-21T03:42:37;97550.88;;;3.07;91.02
84878;BME280;75140;47.754;8.840;2024-02-21T03:45:03;97549.91;;;3.08;91.47
84878;BME280;75140;47.754;8.840;2024-02-21T03:47:28;97547.78;;;3.24;90.96
84878;BME280;75140;47.754;8.840;2024-02-21T03:49:54;97542.19;;;3.18;90.27
84878;BME280;75140;47.754;8.840;2024-02-21T03:52:19;97526.19;;;3.21;89.75
84878;BME280;75140;47.754;8.840;2024-02-21T03:54:45;97526.69;;;3.15;91.42
84878;BME280;75140;47.754;8.840;2024-02-21T03:57:10;97520.22;;;3.19;90.60
84878;BME280;75140;47.754;8.840;2024-02-21T03:59:35;97528.34;;;3.16;90.59
84878;BME280;75140;47.754;8.840;2024-02-21T04:02:01;97513.44;;;3.05;90.90
84878;BME280;75140;47.754;8.840;2024-02-21T04:04:29;97513.91;;;2.99;91.56
84878;BME280;75140;47.754;8.840;2024-02-21T04:06:54;97517.63;;;3.08;91.01
84878;BME280;75140;47.754;8.840;2024-02-21T04:09:19;97522.84;;;2.97;91.46
84878;BME280;75140;47.754;8.840;2024-02-21T04:11:45;97530.13;;;3.04;91.51
84878;BME280;75140;47.754;8.840;2024-02-21T04:14:10;97516.91;;;3.06;91.96
84878;BME280;75140;47.754;8.840;2024-02-21T04:16:36;97520.09;;;2.98;90.91
84878;BME280;75140;47.754;8.840;2024-02-21T04:19:02;97522.84;;;2.97;90.84
84878;BME280;75140;47.754;8.840;2024-02-21T04:21:27;97524.53;;;2.98;91.38
84878;BME280;75140;47.754;8.840;2024-02-21T04:23:52;97524.75;;;3.06;90.50
84878;BME280;75140;47.754;8.840;2024-02-21T04:26:18;97529.03;;;3.07;91.18
84878;BME280;75140;47.754;8.840;2024-02-21T04:28:45;97526.09;;;3.11;90.61
84878;BME280;75140;47.754;8.840;2024-02-21T04:31:10;97528.22;;;3.06;90.48
84878;BME280;75140;47.754;8.840;2024-02-21T04:33:35;97527.63;;;3.03;90.29
84878;BME280;75140;47.754;8.840;2024-02-21T04:36:01;97523.31;;;3.02;90.56
84878;BME280;75140;47.754;8.840;2024-02-21T04:38:27;97529.28;;;3.04;90.08
84878;BME280;75140;47.754;8.840;2024-02-21T04:40:54;97528.06;;;2.97;90.36
84878;BME280;75140;47.754;8.840;2024-02-21T04:43:20;97524.84;;;2.93;90.83
84878;BME280;75140;47.754;8.840;2024-02-21T04:45:45;97528.28;;;2.83;91.00
84878;BME280;75140;47.754;8.840;2024-02-21T04:48:10;97526.13;;;2.77;90.82
84878;BME280;75140;47.754;8.840;2024-02-21T04:50:36;97520.97;;;2.64;91.87
84878;BME280;75140;47.754;8.840;2024-02-21T04:53:02;97510.66;;;2.74;91.88
84878;BME280;75140;47.754;8.840;2024-02-21T04:55:27;97501.22;;;2.71;91.60
84878;BME280;75140;47.754;8.840;2024-02-21T04:57:52;97495.69;;;2.52;92.12
84878;BME280;75140;47.754;8.840;2024-02-21T05:00:18;97493.91;;;2.53;92.15
84878;BME280;75140;47.754;8.840;2024-02-21T05:02:43;97483.31;;;2.54;92.09
84878;BME280;75140;47.754;8.840;2024-02-21T05:05:09;97486.56;;;2.69;92.11
84878;BME280;75140;47.754;8.840;2024-02-21T05:07:34;97481.41;;;2.56;92.13
84878;BME280;75140;47.754;8.840;2024-02-21T05:10:00;97471.78;;;2.57;91.72
84878;BME280;75140;47.754;8.840;2024-02-21T05:12:25;97470.38;;;2.64;92.21
84878;BME280;75140;47.754;8.840;2024-02-21T05:14:51;97467.38;;;2.57;92.00
84878;BME280;75140;47.754;8.840;2024-02-21T05:17:16;97470.19;;;2.43;93.18
84878;BME280;75140;47.754;8.840;2024-02-21T05:19:41;97472.88;;;2.30;92.65
84878;BME280;75140;47.754;8.840;2024-02-21T05:22:07;97477.19;;;2.31;93.77
84878;BME280;75140;47.754;8.840;2024-02-21T05:24:32;97473.84;;;2.29;93.27
84878;BME280;75140;47.754;8.840;2024-02-21T05:26:58;97478.09;;;2.19;93.34
84878;BME280;75140;47.754;8.840;2024-02-21T05:29:23;97457.91;;;2.32;92.76
84878;BME280;75140;47.754;8.840;2024-02-21T05:34:19;97453.63;;;2.42;92.51
84878;BME280;75140;47.754;8.840;2024-02-21T05:36:46;97443.41;;;2.39;92.67
84878;BME280;75140;47.754;8.840;2024-02-21T05:39:11;97434.81;;;2.37;93.10
84878;BME280;75140;47.754;8.840;2024-02-21T05:41:37;97452.66;;;2.32;93.59
84878;BME280;75140;47.754;8.840;2024-02-21T05:44:02;97442.19;;;2.43;92.98
84878;BME280;75140;47.754;8.840;2024-02-21T05:46:28;97442.19;;;2.43;92.97
84878;BME280;75140;47.754;8.840;2024-02-21T05:48:53;97446.25;;;2.36;93.36
84878;BME280;75140;47.754;8.840;2024-02-21T05:51:18;97445.97;;;2.28;92.76
84878;BME280;75140;47.754;8.840;2024-02-21T05:53:44;97445.03;;;2.29;92.67
84878;BME280;75140;47.754;8.840;2024-02-21T05:56:13;97447.69;;;2.40;92.23
84878;BME280;75140;47.754;8.840;2024-02-21T05:58:39;97435.66;;;2.38;91.93
84878;BME280;75140;47.754;8.840;2024-02-21T06:01:05;97437.03;;;2.20;92.32
84878;BME280;75140;47.754;8.840;2024-02-21T06:03:32;97442.41;;;2.29;92.71
84878;BME280;75140;47.754;8.840;2024-02-21T06:05:58;97434.06;;;2.24;92.96
84878;BME280;75140;47.754;8.840;2024-02-21T06:08:23;97427.38;;;2.20;92.59
84878;BME280;75140;47.754;8.840;2024-02-21T06:10:48;97417.88;;;2.30;93.13
84878;BME280;75140;47.754;8.840;2024-02-21T06:13:17;97413.00;;;2.37;92.91
84878;BME280;75140;47.754;8.840;2024-02-21T06:15:42;97420.53;;;2.41;92.51
84878;BME280;75140;47.754;8.840;2024-02-21T06:18:07;97411.34;;;2.36;93.32
84878;BME280;75140;47.754;8.840;2024-02-21T06:20:33;97405.28;;;2.35;92.52
84878;BME280;75140;47.754;8.840;2024-02-21T06:23:01;97412.28;;;2.24;93.06
84878;BME280;75140;47.754;8.840;2024-02-21T06:25:26;97406.69;;;2.17;93.62
84878;BME280;75140;47.754;8.840;2024-02-21T06:27:51;97410.94;;;2.18;93.63
84878;BME280;75140;47.754;8.840;2024-02-21T06:30:17;97412.16;;;2.14;94.00
84878;BME280;75140;47.754;8.840;2024-02-21T06:32:42;97414.03;;;2.12;94.15
84878;BME280;75140;47.754;8.840;2024-02-21T06:35:08;97415.03;;;2.22;93.77
84878;BME280;75140;47.754;8.840;2024-02-21T06:37:33;97416.22;;;2.29;92.06
84878;BME280;75140;47.754;8.840;2024-02-21T06:39:58;97402.78;;;2.23;92.60
84878;BME280;75140;47.754;8.840;2024-02-21T06:42:24;97407.72;;;2.15;92.80
84878;BME280;75140;47.754;8.840;2024-02-21T06:44:50;97403.09;;;2.18;92.82
84878;BME280;75140;47.754;8.840;2024-02-21T06:47:15;97412.16;;;2.14;93.18
84878;BME280;75140;47.754;8.840;2024-02-21T06:49:40;97404.47;;;2.00;93.62
84878;BME280;75140;47.754;8.840;2024-02-21T06:52:06;97419.94;;;2.03;93.42
84878;BME280;75140;47.754;8.840;2024-02-21T06:54:32;97409.53;;;2.25;92.97
84878;BME280;75140;47.754;8.840;2024-02-21T06:56:57;97418.84;;;2.29;92.43
84878;BME280;75140;47.754;8.840;2024-02-21T06:59:23;97416.91;;;2.20;92.79
84878;BME280;75140;47.754;8.840;2024-02-21T07:01:49;97425.78;;;2.41;92.12
84878;BME280;75140;47.754;8.840;2024-02-21T07:04:15;97433.66;;;2.53;92.16
84878;BME280;75140;47.754;8.840;2024-02-21T07:06:41;97429.97;;;2.55;92.17
84878;BME280;75140;47.754;8.840;2024-02-21T07:09:06;97433.91;;;2.72;91.45
84878;BME280;75140;47.754;8.840;2024-02-21T07:11:31;97419.16;;;2.71;91.04
84878;BME280;75140;47.754;8.840;2024-02-21T07:13:57;97422.13;;;2.77;91.31
84878;BME280;75140;47.754;8.840;2024-02-21T07:16:22;97422.94;;;2.78;91.66
84878;BME280;75140;47.754;8.840;2024-02-21T07:18:48;97409.38;;;2.73;92.35
84878;BME280;75140;47.754;8.840;2024-02-21T07:21:13;97401.53;;;2.84;91.15
84878;BME280;75140;47.754;8.840;2024-02-21T07:23:43;97413.19;;;3.13;90.38
84878;BME280;75140;47.754;8.840;2024-02-21T07:26:08;97408.41;;;3.07;90.33
84878;BME280;75140;47.754;8.840;2024-02-21T07:28:33;97414.28;;;2.99;90.17
84878;BME280;75140;47.754;8.840;2024-02-21T07:30:59;97413.06;;;3.14;90.02
84878;BME280;75140;47.754;8.840;2024-02-21T07:33:25;97425.69;;;3.20;90.86
84878;BME280;75140;47.754;8.840;2024-02-21T07:35:50;97425.94;;;3.28;90.02
84878;BME280;75140;47.754;8.840;2024-02-21T07:38:16;97423.28;;;3.39;90.35
84878;BME280;75140;47.754;8.840;2024-02-21T07:40:44;97411.06;;;3.60;89.26
84878;BME280;75140;47.754;8.840;2024-02-21T07:43:10;97406.09;;;3.78;88.40
84878;BME280;75140;47.754;8.840;2024-02-21T07:45:35;97412.84;;;3.92;87.58
84878;BME280;75140;47.754;8.840;2024-02-21T07:48:01;97399.19;;;3.88;87.80
84878;BME280;75140;47.754;8.840;2024-02-21T07:50:27;97391.38;;;3.98;86.71
84878;BME280;75140;47.754;8.840;2024-02-21T07:52:52;97390.41;;;4.19;86.93
84878;BME280;75140;47.754;8.840;2024-02-21T07:55:18;97385.56;;;4.35;86.53
84878;BME280;75140;47.754;8.840;2024-02-21T07:57:43;97380.06;;;4.48;86.52
84878;BME280;75140;47.754;8.840;2024-02-21T08:00:08;97387.06;;;4.58;85.24
84878;BME280;75140;47.754;8.840;2024-02-21T08:02:38;97371.03;;;4.61;85.14
84878;BME280;75140;47.754;8.840;2024-02-21T08:05:04;97364.28;;;4.68;84.66
84878;BME280;75140;47.754;8.840;2024-02-21T08:07:29;97361.91;;;4.96;83.06
84878;BME280;75140;47.754;8.840;2024-02-21T08:09:56;97348.22;;;5.02;83.50
84878;BME280;75140;47.754;8.840;2024-02-21T08:12:21;97356.13;;;5.02;82.39
84878;BME280;75140;47.754;8.840;2024-02-21T08:14:46;97363.00;;;4.93;83.54
84878;BME280;75140;47.754;8.840;2024-02-21T08:17:12;97346.94;;;4.86;83.98
84878;BME280;75140;47.754;8.840;2024-02-21T08:19:37;97365.34;;;4.86;84.00
84878;BME280;75140;47.754;8.840;2024-02-21T08:22:03;97365.66;;;5.03;84.34
84878;BME280;75140;47.754;8.840;2024-02-21T08:24:28;97367.28;;;4.94;84.55
84878;BME280;75140;47.754;8.840;2024-02-21T08:26:53;97368.22;;;5.14;84.10
84878;BME280;75140;47.754;8.840;2024-02-21T08:29:19;97368.78;;;5.27;84.12
84878;BME280;75140;47.754;8.840;2024-02-21T08:31:44;97365.78;;;5.41;83.51
84878;BME280;75140;47.754;8.840;2024-02-21T08:34:10;97357.75;;;5.52;82.36
84878;BME280;75140;47.754;8.840;2024-02-21T08:36:36;97350.84;;;5.79;82.19
84878;BME280;75140;47.754;8.840;2024-02-21T08:39:02;97342.16;;;5.88;81.29
84878;BME280;75140;47.754;8.840;2024-02-21T08:41:31;97346.72;;;5.86;80.55
84878;BME280;75140;47.754;8.840;2024-02-21T08:43:57;97345.34;;;6.11;80.17
84878;BME280;75140;47.754;8.840;2024-02-21T08:46:25;97338.97;;;6.04;81.22
84878;BME280;75140;47.754;8.840;2024-02-21T08:48:51;97331.69;;;6.25;78.63
84878;BME280;75140;47.754;8.840;2024-02-21T08:51:17;97325.28;;;6.37;78.64
84878;BME280;75140;47.754;8.840;2024-02-21T08:53:46;97330.66;;;6.55;78.94
84878;BME280;75140;47.754;8.840;2024-02-21T08:56:12;97327.63;;;6.50;78.55
84878;BME280;75140;47.754;8.840;2024-02-21T08:58:39;97320.88;;;6.38;79.41
84878;BME280;75140;47.754;8.840;2024-02-21T09:01:05;97323.44;;;6.57;78.95
84878;BME280;75140;47.754;8.840;2024-02-21T09:03:32;97316.69;;;6.81;77.51
84878;BME280;75140;47.754;8.840;2024-02-21T09:05:57;97315.03;;;6.80;77.27
84878;BME280;75140;47.754;8.840;2024-02-21T09:08:23;97317.84;;;6.96;76.23
84878;BME280;75140;47.754;8.840;2024-02-21T09:10:49;97312.19;;;7.18;75.80
84878;BME280;75140;47.754;8.840;2024-02-21T09:13:15;97315.75;;;7.27;75.99
84878;BME280;75140;47.754;8.840;2024-02-21T09:15:40;97312.19;;;7.18;76.79
84878;BME280;75140;47.754;8.840;2024-02-21T09:18:05;97311.78;;;7.13;76.47
84878;BME280;75140;47.754;8.840;2024-02-21T09:20:31;97315.13;;;7.60;74.88
84878;BME280;75140;47.754;8.840;2024-02-21T09:22:57;97310.34;;;7.28;75.94
84878;BME280;75140;47.754;8.840;2024-02-21T09:25:22;97311.97;;;7.29;75.13
84878;BME280;75140;47.754;8.840;2024-02-21T09:27:47;97304.00;;;7.57;75.05
84878;BME280;75140;47.754;8.840;2024-02-21T09:30:13;97307.19;;;7.60;72.62
84878;BME280;75140;47.754;8.840;2024-02-21T09:32:38;97308.25;;;7.85;71.64
84878;BME280;75140;47.754;8.840;2024-02-21T09:35:04;97304.59;;;8.03;71.48
84878;BME280;75140;47.754;8.840;2024-02-21T09:37:32;97296.88;;;8.27;71.81
84878;BME280;75140;47.754;8.840;2024-02-21T09:39:58;97306.16;;;8.14;71.26
84878;BME280;75140;47.754;8.840;2024-02-21T09:42:39;97296.16;;;8.43;70.94
84878;BME280;75140;47.754;8.840;2024-02-21T09:45:21;97286.75;;;8.82;68.46
84878;BME280;75140;47.754;8.840;2024-02-21T09:50:28;97288.19;;;9.60;66.26
84878;BME280;75140;47.754;8.840;2024-02-21T09:52:56;97271.81;;;9.97;65.20
84878;BME280;75140;47.754;8.840;2024-02-21T09:55:24;97284.38;;;10.51;63.15
84878;BME280;75140;47.754;8.840;2024-02-21T09:57:55;97268.28;;;10.52;61.04
84878;BME280;75140;47.754;8.840;2024-02-21T10:00:23;97258.34;;;10.93;59.79
84878;BME280;75140;47.754;8.840;2024-02-21T10:02:48;97265.00;;;10.97;60.67
84878;BME280;75140;47.754;8.840;2024-02-21T10:05:17;97256.34;;;11.34;59.93
84878;BME280;75140;47.754;8.840;2024-02-21T10:07:43;97258.28;;;10.70;62.46
84878;BME280;75140;47.754;8.840;2024-02-21T10:10:09;97255.22;;;9.95;64.19
84878;BME280;75140;47.754;8.840;2024-02-21T10:12:34;97256.38;;;9.60;65.87
84878;BME280;75140;47.754;8.840;2024-02-21T10:15:03;97260.69;;;9.69;65.74
84878;BME280;75140;47.754;8.840;2024-02-21T10:17:30;97255.88;;;9.97;63.13
84878;BME280;75140;47.754;8.840;2024-02-21T10:20:07;97243.97;;;10.25;62.97
84878;BME280;75140;47.754;8.840;2024-02-21T10:22:33;97240.34;;;10.18;63.09
84878;BME280;75140;47.754;8.840;2024-02-21T10:25:10;97237.66;;;10.02;63.00
84878;BME280;75140;47.754;8.840;2024-02-21T10:27:37;97229.88;;;9.92;64.28
84878;BME280;75140;47.754;8.840;2024-02-21T10:30:24;97231.03;;;10.30;63.15
84878;BME280;75140;47.754;8.840;2024-02-21T10:32:52;97213.06;;;10.95;61.05
84878;BME280;75140;47.754;8.840;2024-02-21T10:35:32;97222.69;;;10.41;61.37
84878;BME280;75140;47.754;8.840;2024-02-21T10:37:58;97204.56;;;10.60;61.04
84878;BME280;75140;47.754;8.840;2024-02-21T10:40:33;97206.72;;;10.57;61.98
84878;BME280;75140;47.754;8.840;2024-02-21T10:43:00;97206.69;;;10.65;61.89
84878;BME280;75140;47.754;8.840;2024-02-21T10:45:34;97203.53;;;11.00;61.48
84878;BME280;75140;47.754;8.840;2024-02-21T10:48:12;97203.34;;;11.32;59.97
84878;BME280;75140;47.754;8.840;2024-02-21T10:50:56;97199.56;;;11.49;59.46
84878;BME280;75140;47.754;8.840;2024-02-21T10:56:16;97193.91;;;11.75;58.89
84878;BME280;75140;47.754;8.840;2024-02-21T10:58:45;97187.50;;;11.69;59.06
84878;BME280;75140;47.754;8.840;2024-02-21T11:01:12;97190.31;;;11.90;57.32
84878;BME280;75140;47.754;8.840;2024-02-21T11:03:41;97182.16;;;11.47;58.49
84878;BME280;75140;47.754;8.840;2024-02-21T11:06:10;97185.16;;;11.89;57.79
84878;BME280;75140;47.754;8.840;2024-02-21T11:08:35;97184.38;;;11.58;57.10
84878;BME280;75140;47.754;8.840;2024-02-21T11:11:01;97165.22;;;12.22;55.71
84878;BME280;75140;47.754;8.840;2024-02-21T11:13:35;97161.00;;;11.76;57.22
84878;BME280;75140;47.754;8.840;2024-02-21T11:16:11;97162.31;;;11.57;58.42
84878;BME280;75140;47.754;8.840;2024-02-21T11:18:39;97152.16;;;11.38;57.29
84878;BME280;75140;47.754;8.840;2024-02-21T11:21:05;97145.41;;;11.50;57.39
84878;BME280;75140;47.754;8.840;2024-02-21T11:23:31;97142.13;;;11.71;57.94
84878;BME280;75140;47.754;8.840;2024-02-21T11:28:31;97132.88;;;11.59;57.00
84878;BME280;75140;47.754;8.840;2024-02-21T11:31:10;97116.59;;;11.76;56.73
84878;BME280;75140;47.754;8.840;2024-02-21T11:33:42;97113.31;;;11.74;56.92
84878;BME280;75140;47.754;8.840;2024-02-21T11:36:11;97109.56;;;11.83;56.97
84878;BME280;75140;47.754;8.840;2024-02-21T11:38:36;97100.59;;;11.84;56.59
84878;BME280;75140;47.754;8.840;2024-02-21T11:41:02;97095.78;;;11.80;56.79
84878;BME280;75140;47.754;8.840;2024-02-21T11:43:27;97081.88;;;12.22;53.91
84878;BME280;75140;47.754;8.840;2024-02-21T11:46:02;97074.34;;;12.11;54.87
84878;BME280;75140;47.754;8.840;2024-02-21T11:48:29;97072.53;;;11.96;55.86
84878;BME280;75140;47.754;8.840;2024-02-21T11:50:55;97077.72;;;11.75;56.21
84878;BME280;75140;47.754;8.840;2024-02-21T11:53:21;97064.88;;;11.79;56.66
84878;BME280;75140;47.754;8.840;2024-02-21T11:55:46;97058.56;;;11.94;56.88
84878;BME280;75140;47.754;8.840;2024-02-21T11:58:12;97051.28;;;12.18;55.64
84878;BME280;75140;47.754;8.840;2024-02-21T12:00:37;97048.09;;;12.07;55.85
84878;BME280;75140;47.754;8.840;2024-02-21T12:03:04;97042.84;;;12.14;55.21
84878;BME280;75140;47.754;8.840;2024-02-21T12:05:31;97034.09;;;12.35;55.63
84878;BME280;75140;47.754;8.840;2024-02-21T12:07:56;97032.69;;;12.53;53.81
84878;BME280;75140;47.754;8.840;2024-02-21T12:10:23;97025.66;;;12.46;53.94
84878;BME280;75140;47.754;8.840;2024-02-21T12:12:48;97029.47;;;12.58;54.32
84878;BME280;75140;47.754;8.840;2024-02-21T12:15:18;97015.53;;;12.41;54.44
84878;BME280;75140;47.754;8.840;2024-02-21T12:17:44;97022.94;;;12.25;54.91
84878;BME280;75140;47.754;8.840;2024-02-21T12:20:10;97002.44;;;11.89;55.86
84878;BME280;75140;47.754;8.840;2024-02-21T12:22:41;97010.69;;;11.94;56.10
84878;BME280;75140;47.754;8.840;2024-02-21T12:25:20;96990.50;;;11.85;55.72
84878;BME280;75140;47.754;8.840;2024-02-21T12:27:48;96997.94;;;11.90;56.28
84878;BME280;75140;47.754;8.840;2024-02-21T12:30:17;96992.56;;;12.19;55.71
84878;BME280;75140;47.754;8.840;2024-02-21T12:32:42;96992.78;;;12.03;55.82
84878;BME280;75140;47.754;8.840;2024-02-21T12:35:08;96977.28;;;12.28;55.58
84878;BME280;75140;47.754;8.840;2024-02-21T12:37:33;96979.53;;;12.10;55.18
84878;BME280;75140;47.754;8.840;2024-02-21T12:39:59;96971.56;;;12.10;56.22
84878;BME280;75140;47.754;8.840;2024-02-21T12:42:24;96964.88;;;12.14;56.39
84878;BME280;75140;47.754;8.840;2024-02-21T12:44:51;96950.41;;;12.23;55.29
84878;BME280;75140;47.754;8.840;2024-02-21T12:47:17;96952.00;;;12.17;55.45
84878;BME280;75140;47.754;8.840;2024-02-21T12:49:44;96947.97;;;11.71;57.00
84878;BME280;75140;47.754;8.840;2024-02-21T12:52:10;96948.03;;;11.77;56.50
84878;BME280;75140;47.754;8.840;2024-02-21T12:54:36;96940.69;;;11.79;57.01
84878;BME280;75140;47.754;8.840;2024-02-21T12:57:01;96934.44;;;11.87;57.34
84878;BME280;75140;47.754;8.840;2024-02-21T12:59:28;96927.38;;;11.94;57.63
84878;BME280;75140;47.754;8.840;2024-02-21T13:01:54;96908.28;;;11.90;57.13
84878;BME280;75140;47.754;8.840;2024-02-21T13:04:19;96909.84;;;11.85;56.58
84878;BME280;75140;47.754;8.840;2024-02-21T13:06:46;96903.75;;;12.05;56.94
84878;BME280;75140;47.754;8.840;2024-02-21T13:09:12;96905.75;;;12.18;56.59
84878;BME280;75140;47.754;8.840;2024-02-21T13:11:39;96898.78;;;12.17;56.26
84878;BME280;75140;47.754;8.840;2024-02-21T13:14:05;96888.72;;;12.34;55.84